createdAt,value
2018-07-10T00:02:07.534Z,20.80
2018-07-10T00:04:46.886Z,20.70
2018-07-10T00:07:26.486Z,20.60
2018-07-10T00:10:05.138Z,20.50
2018-07-10T00:12:33.289Z,20.40
2018-07-10T00:15:01.475Z,20.40
2018-07-10T00:17:29.673Z,20.30
2018-07-10T00:19:57.888Z,20.30
2018-07-10T00:22:26.064Z,20.30
2018-07-10T00:24:54.232Z,20.30
2018-07-10T00:27:22.446Z,20.30
2018-07-10T00:32:18.537Z,20.30
2018-07-10T00:34:46.694Z,20.20
2018-07-10T00:37:14.867Z,20.20
2018-07-10T00:39:43.022Z,20.20
2018-07-10T00:42:11.174Z,20.10
2018-07-10T00:44:39.331Z,20.00
2018-07-10T00:47:07.492Z,19.80
2018-07-10T00:49:35.901Z,19.70
2018-07-10T00:52:04.093Z,19.70
2018-07-10T00:54:32.283Z,19.70
2018-07-10T00:57:00.600Z,19.70
2018-07-10T00:59:28.753Z,19.70
2018-07-10T01:01:56.950Z,19.60
2018-07-10T01:04:25.370Z,19.60
2018-07-10T01:06:53.574Z,19.60
2018-07-10T01:09:21.758Z,19.60
2018-07-10T01:11:49.961Z,19.50
2018-07-10T01:14:18.159Z,19.40
2018-07-10T01:16:46.365Z,19.30
2018-07-10T01:19:16.160Z,19.30
2018-07-10T01:21:45.621Z,19.20
2018-07-10T01:24:16.776Z,19.20
2018-07-10T01:26:45.050Z,19.20
2018-07-10T01:29:20.193Z,19.20
2018-07-10T01:31:50.298Z,19.20
2018-07-10T01:34:18.504Z,19.10
2018-07-10T01:36:46.751Z,19.20
2018-07-10T01:39:15.182Z,19.20
2018-07-10T01:41:43.758Z,19.10
2018-07-10T01:44:12.510Z,19.20
2018-07-10T01:46:40.703Z,19.20
2018-07-10T01:49:08.897Z,19.20
2018-07-10T01:51:37.094Z,19.20
2018-07-10T01:54:05.295Z,19.30
2018-07-10T01:56:33.551Z,19.20
2018-07-10T01:59:02.062Z,19.30
2018-07-10T02:01:30.309Z,19.30
2018-07-10T02:03:59.947Z,19.30
2018-07-10T02:06:28.709Z,19.40
2018-07-10T02:08:57.382Z,19.30
2018-07-10T02:11:25.763Z,19.30
2018-07-10T02:13:54.025Z,19.40
2018-07-10T02:16:22.302Z,19.30
2018-07-10T02:18:50.686Z,19.30
2018-07-10T02:21:18.874Z,19.30
2018-07-10T02:23:47.313Z,19.30
2018-07-10T02:26:20.527Z,19.30
2018-07-10T02:28:49.648Z,19.20
2018-07-10T02:31:17.930Z,19.20
2018-07-10T02:33:46.152Z,19.20
2018-07-10T02:36:14.342Z,19.10
2018-07-10T02:38:46.245Z,19.10
2018-07-10T02:41:16.731Z,19.20
2018-07-10T02:43:53.038Z,19.00
2018-07-10T02:46:21.478Z,19.00
2018-07-10T02:48:49.859Z,19.00
2018-07-10T02:51:18.288Z,19.00
2018-07-10T02:53:46.821Z,19.00
2018-07-10T02:56:16.719Z,19.00
2018-07-10T03:01:12.936Z,18.80
2018-07-10T03:03:42.279Z,18.80
2018-07-10T03:06:10.500Z,18.80
2018-07-10T03:08:38.939Z,18.80
2018-07-10T03:11:07.148Z,18.70
2018-07-10T03:13:35.759Z,18.70
2018-07-10T03:16:03.971Z,18.80
2018-07-10T03:18:32.559Z,18.80
2018-07-10T03:21:00.883Z,18.70
2018-07-10T03:23:29.071Z,18.70
2018-07-10T03:25:57.275Z,18.70
2018-07-10T03:28:25.463Z,18.80
2018-07-10T03:30:53.655Z,18.70
2018-07-10T03:33:21.871Z,18.70
2018-07-10T03:35:50.290Z,18.70
2018-07-10T03:38:18.508Z,18.70
2018-07-10T03:40:46.734Z,18.70
2018-07-10T03:43:15.253Z,18.70
2018-07-10T03:45:43.459Z,18.70
2018-07-10T03:48:11.649Z,18.70
2018-07-10T03:50:39.887Z,18.70
2018-07-10T03:53:08.089Z,18.70
2018-07-10T03:55:36.750Z,18.70
2018-07-10T03:58:05.175Z,18.70
2018-07-10T04:00:34.766Z,18.70
2018-07-10T04:03:03.527Z,18.70
2018-07-10T04:05:32.015Z,18.70
2018-07-10T04:08:00.189Z,18.70
2018-07-10T04:10:30.324Z,18.70
2018-07-10T04:13:02.954Z,18.70
2018-07-10T04:15:31.414Z,18.70
2018-07-10T04:18:05.638Z,18.70
2018-07-10T04:20:45.283Z,18.80
2018-07-10T04:23:13.439Z,18.70
2018-07-10T04:25:41.602Z,18.70
2018-07-10T04:28:16.498Z,18.80
2018-07-10T04:30:56.951Z,18.80
2018-07-10T04:33:25.153Z,18.80
2018-07-10T04:35:53.378Z,18.80
2018-07-10T04:38:26.359Z,18.70
2018-07-10T04:40:57.938Z,18.70
2018-07-10T04:43:27.307Z,18.80
2018-07-10T04:45:57.405Z,18.70
2018-07-10T04:48:30.833Z,18.70
2018-07-10T04:51:36.778Z,18.70
2018-07-10T04:54:25.263Z,18.70
2018-07-10T04:56:57.850Z,18.70
2018-07-10T04:59:26.011Z,18.70
2018-07-10T05:01:54.162Z,18.70
2018-07-10T05:04:22.319Z,18.70
2018-07-10T05:06:50.492Z,18.70
2018-07-10T05:09:18.638Z,18.70
2018-07-10T05:11:46.790Z,18.70
2018-07-10T05:14:14.941Z,18.60
2018-07-10T05:16:43.107Z,18.60
2018-07-10T05:19:11.258Z,18.60
2018-07-10T05:21:40.223Z,18.70
2018-07-10T05:24:08.512Z,18.80
2018-07-10T05:26:36.720Z,18.90
2018-07-10T05:29:05.116Z,18.90
2018-07-10T05:31:35.007Z,18.90
2018-07-10T05:34:03.154Z,18.90
2018-07-10T05:36:31.313Z,18.90
2018-07-10T05:39:05.710Z,18.90
2018-07-10T05:41:42.144Z,18.90
2018-07-10T05:44:10.311Z,18.90
2018-07-10T05:46:38.827Z,18.80
2018-07-10T05:49:07.173Z,18.80
2018-07-10T05:51:45.001Z,18.80
2018-07-10T05:54:13.745Z,18.70
2018-07-10T05:56:41.990Z,18.80
2018-07-10T05:59:10.252Z,18.80
2018-07-10T06:01:39.514Z,18.80
2018-07-10T06:04:08.815Z,18.90
2018-07-10T06:06:37.013Z,18.80
2018-07-10T06:09:06.179Z,18.90
2018-07-10T06:11:35.774Z,18.90
2018-07-10T06:14:04.144Z,18.90
2018-07-10T06:16:32.331Z,18.90
2018-07-10T06:19:00.518Z,18.80
2018-07-10T06:23:58.252Z,18.80
2018-07-10T06:26:26.510Z,18.70
2018-07-10T06:29:00.866Z,18.70
2018-07-10T06:31:32.665Z,18.70
2018-07-10T06:34:04.380Z,18.70
2018-07-10T06:36:36.190Z,18.60
2018-07-10T06:39:10.166Z,18.70
2018-07-10T06:41:40.273Z,18.70
2018-07-10T06:44:08.482Z,18.60
2018-07-10T06:46:43.650Z,18.60
2018-07-10T06:49:26.761Z,18.60
2018-07-10T06:52:14.918Z,18.70
2018-07-10T06:55:15.487Z,18.80
2018-07-10T06:57:51.131Z,18.90
2018-07-10T07:00:19.466Z,19.00
2018-07-10T07:02:47.791Z,18.90
2018-07-10T07:05:15.974Z,18.90
2018-07-10T07:07:44.192Z,18.90
2018-07-10T07:10:13.530Z,19.00
2018-07-10T07:12:42.417Z,19.20
2018-07-10T07:15:12.331Z,19.30
2018-07-10T07:17:41.358Z,19.40
2018-07-10T07:20:09.936Z,19.30
2018-07-10T07:22:38.131Z,19.30
2018-07-10T07:25:06.328Z,19.40
2018-07-10T07:27:34.518Z,19.50
2018-07-10T07:30:02.715Z,19.60
2018-07-10T07:32:31.378Z,19.70
2018-07-10T07:34:59.590Z,19.80
2018-07-10T07:37:27.839Z,19.80
2018-07-10T07:42:26.384Z,19.90
2018-07-10T07:44:54.564Z,19.90
2018-07-10T07:47:27.395Z,19.90
2018-07-10T07:49:55.693Z,20.00
2018-07-10T07:52:26.451Z,20.00
2018-07-10T07:54:54.614Z,20.10
2018-07-10T07:57:23.668Z,20.10
2018-07-10T07:59:51.955Z,20.20
2018-07-10T08:02:20.647Z,20.30
2018-07-10T08:04:48.847Z,20.30
2018-07-10T08:07:17.957Z,20.40
2018-07-10T08:09:46.122Z,20.40
2018-07-10T08:12:14.676Z,20.50
2018-07-10T08:14:43.000Z,20.50
2018-07-10T08:17:11.157Z,20.50
2018-07-10T08:19:39.383Z,20.50
2018-07-10T08:22:07.546Z,20.60
2018-07-10T08:24:35.761Z,20.60
2018-07-10T08:27:04.019Z,20.70
2018-07-10T08:29:32.471Z,20.60
2018-07-10T08:32:00.647Z,20.50
2018-07-10T08:34:30.050Z,20.50
2018-07-10T08:36:58.224Z,20.60
2018-07-10T08:39:26.385Z,20.70
2018-07-10T08:41:54.542Z,20.70
2018-07-10T08:44:23.170Z,20.70
2018-07-10T08:46:54.051Z,20.80
2018-07-10T08:49:24.791Z,20.80
2018-07-10T08:51:53.189Z,20.80
2018-07-10T08:54:23.414Z,20.70
2018-07-10T08:56:52.203Z,20.80
2018-07-10T08:59:20.863Z,20.80
2018-07-10T09:01:49.667Z,20.80
2018-07-10T09:04:18.967Z,20.90
2018-07-10T09:06:47.964Z,20.90
2018-07-10T09:11:44.510Z,21.00
2018-07-10T09:16:41.625Z,20.80
2018-07-10T09:19:11.046Z,20.80
2018-07-10T09:21:40.977Z,20.80
2018-07-10T09:24:09.174Z,20.80
2018-07-10T09:26:37.374Z,20.80
2018-07-10T09:29:05.571Z,20.80
2018-07-10T09:31:35.731Z,20.70
2018-07-10T09:34:03.932Z,20.60
2018-07-10T09:36:32.110Z,20.60
2018-07-10T09:39:00.308Z,20.70
2018-07-10T09:41:28.834Z,20.70
2018-07-10T09:43:57.341Z,20.70
2018-07-10T09:46:27.587Z,20.80
2018-07-10T09:48:57.054Z,20.90
2018-07-10T09:51:25.262Z,20.90
2018-07-10T09:53:53.694Z,20.90
2018-07-10T09:56:21.899Z,21.00
2018-07-10T09:58:51.861Z,20.90
2018-07-10T10:01:26.517Z,20.90
2018-07-10T10:03:54.969Z,20.70
2018-07-10T10:06:23.943Z,20.80
2018-07-10T10:08:52.141Z,20.90
2018-07-10T10:11:20.307Z,20.90
2018-07-10T10:13:48.715Z,21.00
2018-07-10T10:16:16.879Z,21.10
2018-07-10T10:21:13.016Z,21.30
2018-07-10T10:23:41.321Z,21.40
2018-07-10T10:26:10.050Z,21.60
2018-07-10T10:28:38.198Z,21.80
2018-07-10T10:31:06.358Z,21.90
2018-07-10T10:33:34.506Z,22.00
2018-07-10T10:36:02.670Z,22.10
2018-07-10T10:38:30.832Z,22.10
2018-07-10T10:40:59.546Z,22.20
2018-07-10T10:43:28.236Z,22.30
2018-07-10T10:45:56.421Z,22.20
2018-07-10T10:48:24.577Z,22.30
2018-07-10T10:50:52.751Z,22.20
2018-07-10T10:53:21.587Z,22.40
2018-07-10T10:55:49.770Z,22.40
2018-07-10T10:58:19.254Z,22.70
2018-07-10T11:00:47.459Z,22.70
2018-07-10T11:03:15.698Z,22.90
2018-07-10T11:05:44.627Z,23.00
2018-07-10T11:08:13.319Z,23.00
2018-07-10T11:10:42.271Z,23.10
2018-07-10T11:13:10.683Z,23.10
2018-07-10T11:15:45.490Z,23.10
2018-07-10T11:18:39.522Z,23.20
2018-07-10T11:21:14.434Z,23.30
2018-07-10T11:23:48.323Z,23.30
2018-07-10T11:26:25.609Z,23.50
2018-07-10T11:28:54.516Z,23.60
2018-07-10T11:31:22.734Z,23.60
2018-07-10T11:33:50.935Z,23.40
2018-07-10T11:36:19.131Z,23.30
2018-07-10T11:38:47.627Z,23.30
2018-07-10T11:41:16.257Z,23.30
2018-07-10T11:43:44.787Z,23.30
2018-07-10T11:46:13.022Z,23.50
2018-07-10T11:48:41.238Z,23.50
2018-07-10T11:51:09.472Z,23.60
2018-07-10T11:53:38.174Z,23.50
2018-07-10T11:56:06.378Z,23.60
2018-07-10T11:58:34.818Z,23.40
2018-07-10T12:01:03.311Z,23.40
2018-07-10T12:03:39.829Z,23.30
2018-07-10T12:06:08.768Z,23.30
2018-07-10T12:08:36.943Z,23.30
2018-07-10T12:11:14.935Z,23.20
2018-07-10T12:13:43.266Z,23.20
2018-07-10T12:16:11.598Z,23.30
2018-07-10T12:18:39.759Z,23.50
2018-07-10T12:21:09.031Z,23.60
2018-07-10T12:23:37.197Z,23.70
2018-07-10T12:26:07.040Z,23.80
2018-07-10T12:28:35.189Z,24.00
2018-07-10T12:31:03.615Z,24.10
2018-07-10T12:33:31.808Z,24.10
2018-07-10T12:36:00.247Z,24.10
2018-07-10T12:38:28.456Z,24.20
2018-07-10T12:40:56.945Z,24.20
2018-07-10T12:43:25.148Z,24.40
2018-07-10T12:45:53.306Z,24.40
2018-07-10T12:48:21.539Z,24.50
2018-07-10T12:50:49.690Z,24.50
2018-07-10T12:53:18.142Z,24.50
2018-07-10T12:55:46.305Z,24.50
2018-07-10T12:58:15.118Z,24.60
2018-07-10T13:00:43.645Z,24.60
2018-07-10T13:03:12.290Z,24.60
2018-07-10T13:05:45.747Z,24.70
2018-07-10T13:08:13.918Z,24.60
2018-07-10T13:10:42.095Z,24.50
2018-07-10T13:13:10.335Z,24.50
2018-07-10T13:15:38.965Z,24.50
2018-07-10T13:18:07.131Z,24.60
2018-07-10T13:20:35.427Z,24.90
2018-07-10T13:23:03.642Z,25.00
2018-07-10T13:25:31.845Z,25.10
2018-07-10T13:28:00.058Z,25.20
2018-07-10T13:30:28.219Z,25.30
2018-07-10T13:32:56.449Z,25.20
2018-07-10T13:35:24.623Z,25.20
2018-07-10T13:37:53.084Z,25.30
2018-07-10T13:40:21.242Z,25.50
2018-07-10T13:42:53.811Z,25.60
2018-07-10T13:45:23.326Z,25.60
2018-07-10T13:47:51.577Z,25.80
2018-07-10T13:50:21.817Z,25.80
2018-07-10T13:52:50.192Z,25.90
2018-07-10T13:55:18.576Z,25.90
2018-07-10T13:58:18.901Z,25.70
2018-07-10T14:00:51.126Z,25.40
2018-07-10T14:03:19.319Z,25.30
2018-07-10T14:05:47.515Z,25.10
2018-07-10T14:08:15.970Z,25.10
2018-07-10T14:10:44.180Z,25.20
2018-07-10T14:13:12.370Z,25.30
2018-07-10T14:15:40.898Z,25.00
2018-07-10T14:18:09.103Z,25.20
2018-07-10T14:20:43.169Z,25.20
2018-07-10T14:23:11.570Z,25.10
2018-07-10T14:25:39.790Z,25.30
2018-07-10T14:28:07.998Z,25.40
2018-07-10T14:30:36.278Z,25.60
2018-07-10T14:33:04.487Z,25.70
2018-07-10T14:35:32.912Z,25.70
2018-07-10T14:38:03.072Z,25.50
2018-07-10T14:40:31.873Z,25.20
2018-07-10T14:43:00.253Z,24.80
2018-07-10T14:45:28.475Z,24.50
2018-07-10T14:47:58.011Z,24.10
2018-07-10T14:50:26.679Z,23.60
2018-07-10T14:52:55.233Z,22.80
2018-07-10T14:55:24.363Z,22.30
2018-07-10T14:57:53.086Z,21.80
2018-07-10T15:00:21.291Z,21.50
2018-07-10T15:02:49.489Z,21.40
2018-07-10T15:05:18.020Z,21.40
2018-07-10T15:07:46.206Z,21.30
2018-07-10T15:10:14.395Z,21.40
2018-07-10T15:12:42.585Z,21.60
2018-07-10T15:15:10.828Z,21.50
2018-07-10T15:17:44.326Z,21.40
2018-07-10T15:20:12.560Z,21.50
2018-07-10T15:22:40.812Z,21.40
2018-07-10T15:25:10.247Z,21.40
2018-07-10T15:27:38.612Z,21.40
2018-07-10T15:30:07.232Z,21.40
2018-07-10T15:32:35.303Z,21.20
2018-07-10T15:35:03.768Z,21.00
2018-07-10T15:37:32.016Z,20.90
2018-07-10T15:40:00.238Z,20.80
2018-07-10T15:42:28.533Z,20.70
2018-07-10T15:44:56.732Z,20.60
2018-07-10T15:47:24.962Z,20.50
2018-07-10T15:49:53.159Z,20.40
2018-07-10T15:52:21.358Z,20.40
2018-07-10T15:54:49.551Z,20.30
2018-07-10T15:57:17.758Z,20.30
2018-07-10T15:59:45.948Z,20.40
2018-07-10T16:02:14.138Z,20.40
2018-07-10T16:04:42.318Z,20.40
2018-07-10T16:07:10.806Z,20.50
2018-07-10T16:09:39.007Z,20.60
2018-07-10T16:12:07.357Z,20.60
2018-07-10T16:14:37.634Z,20.50
2018-07-10T16:17:12.352Z,20.40
2018-07-10T16:19:43.629Z,20.40
2018-07-10T16:22:20.531Z,20.30
2018-07-10T16:24:50.626Z,20.20
2018-07-10T16:27:23.752Z,20.10
2018-07-10T16:29:51.958Z,20.10
2018-07-10T16:32:20.180Z,20.00
2018-07-10T16:34:48.373Z,20.00
2018-07-10T16:37:16.587Z,20.00
2018-07-10T16:39:45.079Z,19.90
2018-07-10T16:42:18.574Z,20.00
2018-07-10T16:44:46.880Z,19.90
2018-07-10T16:47:29.622Z,19.80
2018-07-10T16:50:03.519Z,19.80
2018-07-10T16:53:03.054Z,19.80
2018-07-10T16:55:31.302Z,19.80
2018-07-10T16:57:59.827Z,19.60
2018-07-10T17:00:28.235Z,19.60
2018-07-10T17:02:58.241Z,19.60
2018-07-10T17:05:27.130Z,19.50
2018-07-10T17:07:55.847Z,19.50
2018-07-10T17:10:24.112Z,19.50
2018-07-10T17:12:52.316Z,19.50
2018-07-10T17:15:20.496Z,19.40
2018-07-10T17:17:48.658Z,19.30
2018-07-10T17:20:16.811Z,19.30
2018-07-10T17:22:45.281Z,19.30
2018-07-10T17:25:13.471Z,19.30
2018-07-10T17:27:44.682Z,19.30
2018-07-10T17:32:43.592Z,19.20
2018-07-10T17:35:12.887Z,19.10
2018-07-10T17:37:44.379Z,19.10
2018-07-10T17:40:12.565Z,19.00
2018-07-10T17:42:40.943Z,19.00
2018-07-10T17:45:19.639Z,19.00
2018-07-10T17:47:48.428Z,19.00
2018-07-10T17:50:16.575Z,19.00
2018-07-10T17:52:44.927Z,19.00
2018-07-10T17:55:13.087Z,19.10
2018-07-10T17:57:41.847Z,19.00
2018-07-10T18:00:10.182Z,19.10
2018-07-10T18:02:38.352Z,19.10
2018-07-10T18:05:06.534Z,19.10
2018-07-10T18:07:34.698Z,19.10
2018-07-10T18:12:30.903Z,19.20
2018-07-10T18:14:59.112Z,19.20
2018-07-10T18:17:27.285Z,19.20
2018-07-10T18:19:55.680Z,19.30
2018-07-10T18:22:23.859Z,19.20
2018-07-10T18:24:52.049Z,19.20
2018-07-10T18:27:20.737Z,19.20
2018-07-10T18:29:48.903Z,19.20
2018-07-10T18:32:17.079Z,19.20
2018-07-10T18:34:45.251Z,19.20
2018-07-10T18:37:13.410Z,19.10
2018-07-10T18:39:41.900Z,19.10
2018-07-10T18:42:10.066Z,19.10
2018-07-10T18:44:38.227Z,19.00
2018-07-10T18:47:06.391Z,19.00
2018-07-10T18:49:34.599Z,18.90
2018-07-10T18:52:02.775Z,18.90
2018-07-10T18:54:35.590Z,18.90
2018-07-10T18:57:16.091Z,18.90
2018-07-10T18:59:49.383Z,18.90
2018-07-10T19:02:24.933Z,18.80
2018-07-10T19:04:57.183Z,18.80
2018-07-10T19:07:25.350Z,18.80
2018-07-10T19:09:53.578Z,18.80
2018-07-10T19:12:21.729Z,18.80
2018-07-10T19:14:49.838Z,18.80
2018-07-10T19:17:22.735Z,18.80
2018-07-10T19:19:52.970Z,18.80
2018-07-10T19:22:22.608Z,18.90
2018-07-10T19:24:50.817Z,18.90
2018-07-10T19:27:27.846Z,18.90
2018-07-10T19:29:57.883Z,18.90
2018-07-10T19:32:26.206Z,18.90
2018-07-10T19:34:59.897Z,18.90
2018-07-10T19:37:29.651Z,18.90
2018-07-10T19:39:57.818Z,18.80
2018-07-10T19:42:26.575Z,18.90
2018-07-10T19:44:54.959Z,18.90
2018-07-10T19:47:24.412Z,18.80
2018-07-10T19:49:53.493Z,18.90
2018-07-10T19:52:22.670Z,18.90
2018-07-10T19:54:50.869Z,18.90
2018-07-10T19:57:34.782Z,18.90
2018-07-10T20:00:03.059Z,18.90
2018-07-10T20:05:03.059Z,18.80
2018-07-10T20:07:41.374Z,18.90
2018-07-10T20:10:12.921Z,18.80
2018-07-10T20:12:53.876Z,18.70
2018-07-10T20:15:38.582Z,18.70
2018-07-10T20:18:15.367Z,18.70
2018-07-10T20:21:00.126Z,18.60
2018-07-10T20:23:49.791Z,18.60
2018-07-10T20:27:27.519Z,18.60
2018-07-10T20:30:04.192Z,18.50
2018-07-10T20:32:41.139Z,18.50
2018-07-10T20:35:15.426Z,18.50
2018-07-10T20:37:44.330Z,18.50
2018-07-10T20:40:15.487Z,18.50
2018-07-10T20:42:44.199Z,18.40
2018-07-10T20:45:12.369Z,18.40
2018-07-10T20:50:15.117Z,18.50
2018-07-10T20:52:51.615Z,18.50
2018-07-10T20:55:19.791Z,18.50
2018-07-10T20:57:56.124Z,18.50
2018-07-10T21:00:24.527Z,18.40
2018-07-10T21:03:18.509Z,18.40
2018-07-10T21:05:48.248Z,18.30
2018-07-10T21:08:31.246Z,18.30
2018-07-10T21:11:04.232Z,18.30
2018-07-10T21:13:40.364Z,18.30
2018-07-10T21:17:16.691Z,18.20
2018-07-10T21:20:03.159Z,18.30
2018-07-10T21:22:36.718Z,18.30
2018-07-10T21:25:06.987Z,18.30
2018-07-10T21:28:45.799Z,18.30
2018-07-10T21:31:28.413Z,18.30
2018-07-10T21:34:00.904Z,18.30
2018-07-10T21:36:36.227Z,18.20
2018-07-10T21:39:08.824Z,18.20
2018-07-10T21:41:48.453Z,18.20
2018-07-10T21:44:39.984Z,18.20
2018-07-10T21:47:19.614Z,18.20
2018-07-10T21:52:18.646Z,18.20
2018-07-10T21:54:46.816Z,18.20
2018-07-10T21:57:16.407Z,18.20
2018-07-10T22:00:01.394Z,18.20
2018-07-10T22:02:30.185Z,18.20
2018-07-10T22:04:58.943Z,18.10
2018-07-10T22:07:28.555Z,18.10
2018-07-10T22:10:00.772Z,18.10
2018-07-10T22:12:28.988Z,18.10
2018-07-10T22:17:26.159Z,18.00
2018-07-10T22:22:31.414Z,18.00
2018-07-10T22:25:02.250Z,18.00
2018-07-10T22:27:30.418Z,18.00
2018-07-10T22:30:04.482Z,17.80
2018-07-10T22:32:40.411Z,17.80
2018-07-10T22:35:08.650Z,17.80
2018-07-10T22:37:36.838Z,17.80
2018-07-10T22:40:05.736Z,17.80
2018-07-10T22:42:33.927Z,17.90
2018-07-10T22:45:02.094Z,17.90
2018-07-10T22:47:33.006Z,17.80
2018-07-10T22:50:04.659Z,17.80
2018-07-10T22:52:33.627Z,17.80
2018-07-10T22:55:02.207Z,17.70
2018-07-10T22:57:30.393Z,17.70
2018-07-10T22:59:58.578Z,17.70
2018-07-10T23:02:27.091Z,17.70
2018-07-10T23:04:55.315Z,17.80
2018-07-10T23:07:23.521Z,17.80
2018-07-10T23:09:51.759Z,17.80
2018-07-10T23:12:20.018Z,17.70
2018-07-10T23:14:48.272Z,17.80
2018-07-10T23:17:16.495Z,17.70
2018-07-10T23:22:12.935Z,17.70
2018-07-10T23:24:41.122Z,17.70
2018-07-10T23:27:09.367Z,17.70
2018-07-10T23:29:39.311Z,17.70
2018-07-10T23:34:35.462Z,17.80
2018-07-10T23:39:42.243Z,17.70
2018-07-10T23:42:16.320Z,17.70
2018-07-10T23:44:46.979Z,17.70
2018-07-10T23:47:29.491Z,17.70
2018-07-10T23:50:04.819Z,17.70
2018-07-10T23:52:44.115Z,17.70
2018-07-10T23:55:12.319Z,17.80
2018-07-10T23:57:40.529Z,17.80
